<?xml version="1.0" encoding="UTF-8" standalone="no" ?>
<gpx xmlns="http://www.topografix.com/GPX/1/1" xmlns:xsi="http://www.w3.org/2001/XMLSchema-instance" xsi:schemaLocation="http://www.topografix.com/GPX/1/1 http://www.topografix.com/GPX/1/1/gpx.xsd" version="1.1" creator="VisuGPX - https://www.visugpx.com">
  <metadata>
    <name>Course à pied le matin</name>
  </metadata>
  <trk>
    <name><![CDATA[Course à pied le matin_1]]></name>
    <trkseg>
      <trkpt lat="44.9285" lon="4.88599">
        <ele>111.4</ele>
        <time>2023-09-03T08:06:17Z</time>
      </trkpt>
      <trkpt lat="44.92851" lon="4.88601">
        <ele>111.4</ele>
        <time>2023-09-03T08:06:18Z</time>
      </trkpt>
      <trkpt lat="44.92869" lon="4.88601">
        <ele>111.4</ele>
        <time>2023-09-03T08:06:31Z</time>
      </trkpt>
      <trkpt lat="44.92882" lon="4.8862">
        <ele>111.5</ele>
        <time>2023-09-03T08:06:39Z</time>
      </trkpt>
      <trkpt lat="44.92894" lon="4.88639">
        <ele>111.6</ele>
        <time>2023-09-03T08:06:46Z</time>
      </trkpt>
      <trkpt lat="44.92908" lon="4.88659">
        <ele>111.5</ele>
        <time>2023-09-03T08:06:54Z</time>
      </trkpt>
      <trkpt lat="44.92924" lon="4.88677">
        <ele>111.4</ele>
        <time>2023-09-03T08:07:02Z</time>
      </trkpt>
      <trkpt lat="44.92942" lon="4.88684">
        <ele>111.6</ele>
        <time>2023-09-03T08:07:09Z</time>
      </trkpt>
      <trkpt lat="44.92959" lon="4.88692">
        <ele>111.8</ele>
        <time>2023-09-03T08:07:16Z</time>
      </trkpt>
      <trkpt lat="44.92976" lon="4.88701">
        <ele>112.1</ele>
        <time>2023-09-03T08:07:23Z</time>
      </trkpt>
      <trkpt lat="44.92993" lon="4.88712">
        <ele>112.2</ele>
        <time>2023-09-03T08:07:31Z</time>
      </trkpt>
      <trkpt lat="44.93011" lon="4.88721">
        <ele>112.4</ele>
        <time>2023-09-03T08:07:39Z</time>
      </trkpt>
      <trkpt lat="44.93029" lon="4.88732">
        <ele>112.6</ele>
        <time>2023-09-03T08:07:47Z</time>
      </trkpt>
      <trkpt lat="44.93047" lon="4.88738">
        <ele>112.7</ele>
        <time>2023-09-03T08:07:55Z</time>
      </trkpt>
      <trkpt lat="44.93062" lon="4.88726">
        <ele>113</ele>
        <time>2023-09-03T08:08:04Z</time>
      </trkpt>
      <trkpt lat="44.93067" lon="4.88698">
        <ele>113.1</ele>
        <time>2023-09-03T08:08:13Z</time>
      </trkpt>
      <trkpt lat="44.93069" lon="4.88673">
        <ele>113.1</ele>
        <time>2023-09-03T08:08:20Z</time>
      </trkpt>
      <trkpt lat="44.93069" lon="4.88644">
        <ele>111.9</ele>
        <time>2023-09-03T08:08:27Z</time>
      </trkpt>
      <trkpt lat="44.93074" lon="4.88617">
        <ele>111.7</ele>
        <time>2023-09-03T08:08:35Z</time>
      </trkpt>
      <trkpt lat="44.93078" lon="4.8859">
        <ele>111.6</ele>
        <time>2023-09-03T08:08:43Z</time>
      </trkpt>
      <trkpt lat="44.93077" lon="4.88564">
        <ele>111.5</ele>
        <time>2023-09-03T08:08:51Z</time>
      </trkpt>
      <trkpt lat="44.93072" lon="4.88539">
        <ele>111.3</ele>
        <time>2023-09-03T08:08:57Z</time>
      </trkpt>
      <trkpt lat="44.93063" lon="4.88515">
        <ele>111.2</ele>
        <time>2023-09-03T08:09:04Z</time>
      </trkpt>
      <trkpt lat="44.93049" lon="4.88494">
        <ele>111.2</ele>
        <time>2023-09-03T08:09:11Z</time>
      </trkpt>
      <trkpt lat="44.93033" lon="4.88479">
        <ele>111.2</ele>
        <time>2023-09-03T08:09:18Z</time>
      </trkpt>
      <trkpt lat="44.93018" lon="4.88464">
        <ele>111.3</ele>
        <time>2023-09-03T08:09:25Z</time>
      </trkpt>
      <trkpt lat="44.93007" lon="4.8844">
        <ele>111.4</ele>
        <time>2023-09-03T08:09:33Z</time>
      </trkpt>
      <trkpt lat="44.92997" lon="4.88418">
        <ele>111.4</ele>
        <time>2023-09-03T08:09:40Z</time>
      </trkpt>
      <trkpt lat="44.92982" lon="4.88399">
        <ele>111.3</ele>
        <time>2023-09-03T08:09:47Z</time>
      </trkpt>
      <trkpt lat="44.92969" lon="4.88379">
        <ele>111.2</ele>
        <time>2023-09-03T08:09:54Z</time>
      </trkpt>
      <trkpt lat="44.92967" lon="4.88373">
        <ele>110.9</ele>
        <time>2023-09-03T08:09:56Z</time>
      </trkpt>
      <trkpt lat="44.92974" lon="4.88368">
        <ele>110.1</ele>
        <time>2023-09-03T08:09:59Z</time>
      </trkpt>
      <trkpt lat="44.92992" lon="4.88374">
        <ele>109.7</ele>
        <time>2023-09-03T08:10:05Z</time>
      </trkpt>
      <trkpt lat="44.93007" lon="4.88391">
        <ele>110.1</ele>
        <time>2023-09-03T08:10:11Z</time>
      </trkpt>
      <trkpt lat="44.93019" lon="4.88414">
        <ele>110.8</ele>
        <time>2023-09-03T08:10:18Z</time>
      </trkpt>
      <trkpt lat="44.93033" lon="4.88435">
        <ele>111.1</ele>
        <time>2023-09-03T08:10:25Z</time>
      </trkpt>
      <trkpt lat="44.93048" lon="4.88447">
        <ele>111.3</ele>
        <time>2023-09-03T08:10:32Z</time>
      </trkpt>
      <trkpt lat="44.93065" lon="4.88464">
        <ele>111.6</ele>
        <time>2023-09-03T08:10:39Z</time>
      </trkpt>
      <trkpt lat="44.93081" lon="4.88479">
        <ele>111.5</ele>
        <time>2023-09-03T08:10:46Z</time>
      </trkpt>
      <trkpt lat="44.93099" lon="4.88483">
        <ele>111.1</ele>
        <time>2023-09-03T08:10:53Z</time>
      </trkpt>
      <trkpt lat="44.93109" lon="4.88502">
        <ele>111.1</ele>
        <time>2023-09-03T08:11:00Z</time>
      </trkpt>
      <trkpt lat="44.93097" lon="4.88523">
        <ele>111.2</ele>
        <time>2023-09-03T08:11:08Z</time>
      </trkpt>
      <trkpt lat="44.9308" lon="4.88538">
        <ele>111.4</ele>
        <time>2023-09-03T08:11:15Z</time>
      </trkpt>
      <trkpt lat="44.93078" lon="4.88565">
        <ele>111.5</ele>
        <time>2023-09-03T08:11:23Z</time>
      </trkpt>
      <trkpt lat="44.93075" lon="4.8857">
        <ele>111.5</ele>
        <time>2023-09-03T08:11:25Z</time>
      </trkpt>
      <trkpt lat="44.93059" lon="4.88582">
        <ele>111.5</ele>
        <time>2023-09-03T08:11:31Z</time>
      </trkpt>
      <trkpt lat="44.93047" lon="4.88603">
        <ele>111.5</ele>
        <time>2023-09-03T08:11:37Z</time>
      </trkpt>
      <trkpt lat="44.9304" lon="4.8863">
        <ele>111.3</ele>
        <time>2023-09-03T08:11:43Z</time>
      </trkpt>
      <trkpt lat="44.93038" lon="4.88636">
        <ele>111.2</ele>
        <time>2023-09-03T08:11:45Z</time>
      </trkpt>
      <trkpt lat="44.93029" lon="4.88615">
        <ele>111</ele>
        <time>2023-09-03T08:11:52Z</time>
      </trkpt>
      <trkpt lat="44.9302" lon="4.88588">
        <ele>110.8</ele>
        <time>2023-09-03T08:11:59Z</time>
      </trkpt>
      <trkpt lat="44.93014" lon="4.88562">
        <ele>110.8</ele>
        <time>2023-09-03T08:12:06Z</time>
      </trkpt>
      <trkpt lat="44.93003" lon="4.88538">
        <ele>110.8</ele>
        <time>2023-09-03T08:12:15Z</time>
      </trkpt>
      <trkpt lat="44.92986" lon="4.88534">
        <ele>110.8</ele>
        <time>2023-09-03T08:12:23Z</time>
      </trkpt>
      <trkpt lat="44.92966" lon="4.88538">
        <ele>110.8</ele>
        <time>2023-09-03T08:12:30Z</time>
      </trkpt>
      <trkpt lat="44.92949" lon="4.88548">
        <ele>110.9</ele>
        <time>2023-09-03T08:12:36Z</time>
      </trkpt>
      <trkpt lat="44.92934" lon="4.88567">
        <ele>110.9</ele>
        <time>2023-09-03T08:12:43Z</time>
      </trkpt>
      <trkpt lat="44.92919" lon="4.88573">
        <ele>110.9</ele>
        <time>2023-09-03T08:12:50Z</time>
      </trkpt>
      <trkpt lat="44.92901" lon="4.88566">
        <ele>111.2</ele>
        <time>2023-09-03T08:12:57Z</time>
      </trkpt>
      <trkpt lat="44.92884" lon="4.88558">
        <ele>111.4</ele>
        <time>2023-09-03T08:13:04Z</time>
      </trkpt>
      <trkpt lat="44.92865" lon="4.88556">
        <ele>111.5</ele>
        <time>2023-09-03T08:13:12Z</time>
      </trkpt>
      <trkpt lat="44.92848" lon="4.88563">
        <ele>111.6</ele>
        <time>2023-09-03T08:13:20Z</time>
      </trkpt>
      <trkpt lat="44.9283" lon="4.88577">
        <ele>111.7</ele>
        <time>2023-09-03T08:13:28Z</time>
      </trkpt>
      <trkpt lat="44.9282" lon="4.886">
        <ele>111.8</ele>
        <time>2023-09-03T08:13:35Z</time>
      </trkpt>
      <trkpt lat="44.92819" lon="4.88627">
        <ele>112</ele>
        <time>2023-09-03T08:13:43Z</time>
      </trkpt>
      <trkpt lat="44.92829" lon="4.8865">
        <ele>112.6</ele>
        <time>2023-09-03T08:13:52Z</time>
      </trkpt>
      <trkpt lat="44.92844" lon="4.8867">
        <ele>113.4</ele>
        <time>2023-09-03T08:13:59Z</time>
      </trkpt>
      <trkpt lat="44.92858" lon="4.88686">
        <ele>114.3</ele>
        <time>2023-09-03T08:14:06Z</time>
      </trkpt>
      <trkpt lat="44.92872" lon="4.88704">
        <ele>115.3</ele>
        <time>2023-09-03T08:14:16Z</time>
      </trkpt>
      <trkpt lat="44.9289" lon="4.88709">
        <ele>116</ele>
        <time>2023-09-03T08:14:24Z</time>
      </trkpt>
      <trkpt lat="44.92892" lon="4.88707">
        <ele>116</ele>
        <time>2023-09-03T08:14:28Z</time>
      </trkpt>
      <trkpt lat="44.92875" lon="4.88698">
        <ele>115.3</ele>
        <time>2023-09-03T08:14:35Z</time>
      </trkpt>
      <trkpt lat="44.92855" lon="4.88686">
        <ele>114.1</ele>
        <time>2023-09-03T08:14:42Z</time>
      </trkpt>
      <trkpt lat="44.92839" lon="4.88672">
        <ele>113.3</ele>
        <time>2023-09-03T08:14:48Z</time>
      </trkpt>
      <trkpt lat="44.92825" lon="4.88655">
        <ele>112.5</ele>
        <time>2023-09-03T08:14:54Z</time>
      </trkpt>
      <trkpt lat="44.92815" lon="4.88633">
        <ele>112</ele>
        <time>2023-09-03T08:15:00Z</time>
      </trkpt>
      <trkpt lat="44.92815" lon="4.88604">
        <ele>111.8</ele>
        <time>2023-09-03T08:15:08Z</time>
      </trkpt>
      <trkpt lat="44.92826" lon="4.88582">
        <ele>111.8</ele>
        <time>2023-09-03T08:15:14Z</time>
      </trkpt>
      <trkpt lat="44.92842" lon="4.88568">
        <ele>111.6</ele>
        <time>2023-09-03T08:15:20Z</time>
      </trkpt>
      <trkpt lat="44.92859" lon="4.88559">
        <ele>111.5</ele>
        <time>2023-09-03T08:15:26Z</time>
      </trkpt>
      <trkpt lat="44.92879" lon="4.88553">
        <ele>111.4</ele>
        <time>2023-09-03T08:15:33Z</time>
      </trkpt>
      <trkpt lat="44.92899" lon="4.88556">
        <ele>111.2</ele>
        <time>2023-09-03T08:15:40Z</time>
      </trkpt>
      <trkpt lat="44.92908" lon="4.88554">
        <ele>111.3</ele>
        <time>2023-09-03T08:15:44Z</time>
      </trkpt>
      <trkpt lat="44.92918" lon="4.88532">
        <ele>111.4</ele>
        <time>2023-09-03T08:15:50Z</time>
      </trkpt>
      <trkpt lat="44.92931" lon="4.88511">
        <ele>111.4</ele>
        <time>2023-09-03T08:15:57Z</time>
      </trkpt>
      <trkpt lat="44.92945" lon="4.88492">
        <ele>111.3</ele>
        <time>2023-09-03T08:16:03Z</time>
      </trkpt>
      <trkpt lat="44.9296" lon="4.88478">
        <ele>111.4</ele>
        <time>2023-09-03T08:16:09Z</time>
      </trkpt>
      <trkpt lat="44.92978" lon="4.88467">
        <ele>111.4</ele>
        <time>2023-09-03T08:16:16Z</time>
      </trkpt>
      <trkpt lat="44.92999" lon="4.88463">
        <ele>111.3</ele>
        <time>2023-09-03T08:16:23Z</time>
      </trkpt>
      <trkpt lat="44.93017" lon="4.88464">
        <ele>111.3</ele>
        <time>2023-09-03T08:16:29Z</time>
      </trkpt>
      <trkpt lat="44.93037" lon="4.88475">
        <ele>111.2</ele>
        <time>2023-09-03T08:16:35Z</time>
      </trkpt>
      <trkpt lat="44.93054" lon="4.88491">
        <ele>111.2</ele>
        <time>2023-09-03T08:16:41Z</time>
      </trkpt>
      <trkpt lat="44.93067" lon="4.88513">
        <ele>111.3</ele>
        <time>2023-09-03T08:16:47Z</time>
      </trkpt>
      <trkpt lat="44.93075" lon="4.88537">
        <ele>111.3</ele>
        <time>2023-09-03T08:16:53Z</time>
      </trkpt>
      <trkpt lat="44.93081" lon="4.88565">
        <ele>111.5</ele>
        <time>2023-09-03T08:17:00Z</time>
      </trkpt>
      <trkpt lat="44.93082" lon="4.88592">
        <ele>111.6</ele>
        <time>2023-09-03T08:17:06Z</time>
      </trkpt>
      <trkpt lat="44.93078" lon="4.88619">
        <ele>111.7</ele>
        <time>2023-09-03T08:17:13Z</time>
      </trkpt>
      <trkpt lat="44.93071" lon="4.88645">
        <ele>111.9</ele>
        <time>2023-09-03T08:17:20Z</time>
      </trkpt>
      <trkpt lat="44.9306" lon="4.8867">
        <ele>112.1</ele>
        <time>2023-09-03T08:17:27Z</time>
      </trkpt>
      <trkpt lat="44.93045" lon="4.88686">
        <ele>112.2</ele>
        <time>2023-09-03T08:17:33Z</time>
      </trkpt>
      <trkpt lat="44.93026" lon="4.887">
        <ele>112.2</ele>
        <time>2023-09-03T08:17:39Z</time>
      </trkpt>
      <trkpt lat="44.93009" lon="4.88707">
        <ele>112.2</ele>
        <time>2023-09-03T08:17:44Z</time>
      </trkpt>
      <trkpt lat="44.92988" lon="4.88707">
        <ele>112.1</ele>
        <time>2023-09-03T08:17:50Z</time>
      </trkpt>
      <trkpt lat="44.9297" lon="4.88698">
        <ele>111.9</ele>
        <time>2023-09-03T08:17:56Z</time>
      </trkpt>
      <trkpt lat="44.92952" lon="4.8869">
        <ele>111.7</ele>
        <time>2023-09-03T08:18:02Z</time>
      </trkpt>
      <trkpt lat="44.92933" lon="4.88677">
        <ele>111.4</ele>
        <time>2023-09-03T08:18:09Z</time>
      </trkpt>
      <trkpt lat="44.92919" lon="4.88657">
        <ele>111.3</ele>
        <time>2023-09-03T08:18:15Z</time>
      </trkpt>
      <trkpt lat="44.92906" lon="4.88634">
        <ele>111.2</ele>
        <time>2023-09-03T08:18:22Z</time>
      </trkpt>
      <trkpt lat="44.929" lon="4.88607">
        <ele>111.2</ele>
        <time>2023-09-03T08:18:29Z</time>
      </trkpt>
      <trkpt lat="44.92901" lon="4.8858">
        <ele>111.2</ele>
        <time>2023-09-03T08:18:36Z</time>
      </trkpt>
      <trkpt lat="44.92911" lon="4.88554">
        <ele>111.3</ele>
        <time>2023-09-03T08:18:43Z</time>
      </trkpt>
      <trkpt lat="44.92923" lon="4.8853">
        <ele>111.4</ele>
        <time>2023-09-03T08:18:49Z</time>
      </trkpt>
      <trkpt lat="44.92935" lon="4.88511">
        <ele>111.4</ele>
        <time>2023-09-03T08:18:55Z</time>
      </trkpt>
      <trkpt lat="44.9295" lon="4.88491">
        <ele>111.3</ele>
        <time>2023-09-03T08:19:02Z</time>
      </trkpt>
      <trkpt lat="44.92965" lon="4.88477">
        <ele>111.4</ele>
        <time>2023-09-03T08:19:08Z</time>
      </trkpt>
      <trkpt lat="44.92984" lon="4.8847">
        <ele>111.4</ele>
        <time>2023-09-03T08:19:15Z</time>
      </trkpt>
      <trkpt lat="44.93002" lon="4.88472">
        <ele>111.3</ele>
        <time>2023-09-03T08:19:22Z</time>
      </trkpt>
      <trkpt lat="44.93022" lon="4.88473">
        <ele>111.3</ele>
        <time>2023-09-03T08:19:29Z</time>
      </trkpt>
      <trkpt lat="44.9304" lon="4.88484">
        <ele>111.2</ele>
        <time>2023-09-03T08:19:35Z</time>
      </trkpt>
      <trkpt lat="44.93057" lon="4.88499">
        <ele>111.2</ele>
        <time>2023-09-03T08:19:41Z</time>
      </trkpt>
      <trkpt lat="44.9307" lon="4.88518">
        <ele>111.3</ele>
        <time>2023-09-03T08:19:47Z</time>
      </trkpt>
      <trkpt lat="44.93077" lon="4.88543">
        <ele>111.3</ele>
        <time>2023-09-03T08:19:53Z</time>
      </trkpt>
      <trkpt lat="44.93081" lon="4.8857">
        <ele>111.5</ele>
        <time>2023-09-03T08:20:00Z</time>
      </trkpt>
      <trkpt lat="44.93078" lon="4.88596">
        <ele>111.6</ele>
        <time>2023-09-03T08:20:07Z</time>
      </trkpt>
      <trkpt lat="44.93073" lon="4.88621">
        <ele>111.7</ele>
        <time>2023-09-03T08:20:14Z</time>
      </trkpt>
      <trkpt lat="44.93065" lon="4.88648">
        <ele>112</ele>
        <time>2023-09-03T08:20:21Z</time>
      </trkpt>
      <trkpt lat="44.93053" lon="4.8867">
        <ele>112.1</ele>
        <time>2023-09-03T08:20:28Z</time>
      </trkpt>
      <trkpt lat="44.93038" lon="4.88686">
        <ele>112.2</ele>
        <time>2023-09-03T08:20:34Z</time>
      </trkpt>
      <trkpt lat="44.93021" lon="4.88698">
        <ele>112.2</ele>
        <time>2023-09-03T08:20:40Z</time>
      </trkpt>
      <trkpt lat="44.93001" lon="4.88707">
        <ele>112.2</ele>
        <time>2023-09-03T08:20:46Z</time>
      </trkpt>
      <trkpt lat="44.92982" lon="4.88706">
        <ele>112.1</ele>
        <time>2023-09-03T08:20:52Z</time>
      </trkpt>
      <trkpt lat="44.92965" lon="4.88697">
        <ele>111.8</ele>
        <time>2023-09-03T08:20:58Z</time>
      </trkpt>
      <trkpt lat="44.92948" lon="4.88689">
        <ele>111.6</ele>
        <time>2023-09-03T08:21:04Z</time>
      </trkpt>
      <trkpt lat="44.92928" lon="4.88683">
        <ele>111.5</ele>
        <time>2023-09-03T08:21:11Z</time>
      </trkpt>
      <trkpt lat="44.9291" lon="4.88668">
        <ele>111.4</ele>
        <time>2023-09-03T08:21:18Z</time>
      </trkpt>
      <trkpt lat="44.92894" lon="4.88657">
        <ele>111.8</ele>
        <time>2023-09-03T08:21:26Z</time>
      </trkpt>
      <trkpt lat="44.92877" lon="4.88646">
        <ele>111.9</ele>
        <time>2023-09-03T08:21:33Z</time>
      </trkpt>
      <trkpt lat="44.92862" lon="4.88629">
        <ele>111.8</ele>
        <time>2023-09-03T08:21:40Z</time>
      </trkpt>
      <trkpt lat="44.92851" lon="4.88607">
        <ele>111.7</ele>
        <time>2023-09-03T08:21:48Z</time>
      </trkpt>
      <trkpt lat="44.92843" lon="4.88601">
        <ele>111.7</ele>
        <time>2023-09-03T08:21:53Z</time>
      </trkpt>
      <trkpt lat="44.92839" lon="4.88603">
        <ele>111.7</ele>
        <time>2023-09-03T08:24:17Z</time>
      </trkpt>
      <trkpt lat="44.92838" lon="4.88601">
        <ele>111.7</ele>
        <time>2023-09-03T08:24:19Z</time>
      </trkpt>
      <trkpt lat="44.92831" lon="4.88598">
        <ele>111.7</ele>
        <time>2023-09-03T08:24:23Z</time>
      </trkpt>
      <trkpt lat="44.92823" lon="4.88586">
        <ele>111.8</ele>
        <time>2023-09-03T08:24:31Z</time>
      </trkpt>
      <trkpt lat="44.92835" lon="4.88568">
        <ele>111.7</ele>
        <time>2023-09-03T08:24:40Z</time>
      </trkpt>
      <trkpt lat="44.92853" lon="4.88571">
        <ele>111.4</ele>
        <time>2023-09-03T08:24:52Z</time>
      </trkpt>
      <trkpt lat="44.92865" lon="4.8859">
        <ele>111.4</ele>
        <time>2023-09-03T08:25:01Z</time>
      </trkpt>
      <trkpt lat="44.92876" lon="4.88612">
        <ele>111.4</ele>
        <time>2023-09-03T08:25:11Z</time>
      </trkpt>
      <trkpt lat="44.92887" lon="4.88634">
        <ele>111.5</ele>
        <time>2023-09-03T08:25:18Z</time>
      </trkpt>
      <trkpt lat="44.92891" lon="4.88655">
        <ele>111.6</ele>
        <time>2023-09-03T08:25:24Z</time>
      </trkpt>
      <trkpt lat="44.92885" lon="4.88673">
        <ele>113</ele>
        <time>2023-09-03T08:25:34Z</time>
      </trkpt>
      <trkpt lat="44.9289" lon="4.88681">
        <ele>114.3</ele>
        <time>2023-09-03T08:25:40Z</time>
      </trkpt>
      <trkpt lat="44.92893" lon="4.88687">
        <ele>114.8</ele>
        <time>2023-09-03T08:25:44Z</time>
      </trkpt>
      <trkpt lat="44.92895" lon="4.88689">
        <ele>115</ele>
        <time>2023-09-03T08:25:46Z</time>
      </trkpt>
      <trkpt lat="44.92904" lon="4.88712">
        <ele>116.6</ele>
        <time>2023-09-03T08:25:55Z</time>
      </trkpt>
      <trkpt lat="44.92919" lon="4.88727">
        <ele>118.3</ele>
        <time>2023-09-03T08:26:04Z</time>
      </trkpt>
      <trkpt lat="44.92935" lon="4.88743">
        <ele>120.2</ele>
        <time>2023-09-03T08:26:13Z</time>
      </trkpt>
      <trkpt lat="44.92952" lon="4.88754">
        <ele>121.3</ele>
        <time>2023-09-03T08:26:20Z</time>
      </trkpt>
      <trkpt lat="44.92971" lon="4.88765">
        <ele>120.1</ele>
        <time>2023-09-03T08:26:27Z</time>
      </trkpt>
      <trkpt lat="44.9299" lon="4.8877">
        <ele>118.4</ele>
        <time>2023-09-03T08:26:34Z</time>
      </trkpt>
      <trkpt lat="44.93009" lon="4.88772">
        <ele>116.9</ele>
        <time>2023-09-03T08:26:40Z</time>
      </trkpt>
      <trkpt lat="44.93027" lon="4.88765">
        <ele>114.7</ele>
        <time>2023-09-03T08:26:48Z</time>
      </trkpt>
      <trkpt lat="44.93037" lon="4.88765">
        <ele>115.9</ele>
        <time>2023-09-03T08:26:52Z</time>
      </trkpt>
      <trkpt lat="44.93049" lon="4.88772">
        <ele>117.6</ele>
        <time>2023-09-03T08:26:58Z</time>
      </trkpt>
      <trkpt lat="44.93052" lon="4.88769">
        <ele>117.6</ele>
        <time>2023-09-03T08:27:00Z</time>
      </trkpt>
      <trkpt lat="44.93036" lon="4.88754">
        <ele>113.7</ele>
        <time>2023-09-03T08:27:08Z</time>
      </trkpt>
      <trkpt lat="44.93025" lon="4.88745">
        <ele>112.9</ele>
        <time>2023-09-03T08:27:13Z</time>
      </trkpt>
      <trkpt lat="44.93025" lon="4.88739">
        <ele>112.6</ele>
        <time>2023-09-03T08:27:15Z</time>
      </trkpt>
      <trkpt lat="44.93028" lon="4.88734">
        <ele>112.7</ele>
        <time>2023-09-03T08:27:17Z</time>
      </trkpt>
      <trkpt lat="44.93046" lon="4.88741">
        <ele>112.7</ele>
        <time>2023-09-03T08:27:25Z</time>
      </trkpt>
      <trkpt lat="44.93061" lon="4.88728">
        <ele>113</ele>
        <time>2023-09-03T08:27:35Z</time>
      </trkpt>
      <trkpt lat="44.93067" lon="4.88702">
        <ele>113.1</ele>
        <time>2023-09-03T08:27:42Z</time>
      </trkpt>
      <trkpt lat="44.93068" lon="4.88696">
        <ele>113.2</ele>
        <time>2023-09-03T08:27:44Z</time>
      </trkpt>
      <trkpt lat="44.93069" lon="4.88668">
        <ele>113.1</ele>
        <time>2023-09-03T08:27:53Z</time>
      </trkpt>
      <trkpt lat="44.93068" lon="4.88641">
        <ele>111.9</ele>
        <time>2023-09-03T08:28:02Z</time>
      </trkpt>
      <trkpt lat="44.93073" lon="4.88616">
        <ele>111.7</ele>
        <time>2023-09-03T08:28:09Z</time>
      </trkpt>
      <trkpt lat="44.93075" lon="4.8859">
        <ele>111.6</ele>
        <time>2023-09-03T08:28:16Z</time>
      </trkpt>
      <trkpt lat="44.93073" lon="4.88562">
        <ele>111.5</ele>
        <time>2023-09-03T08:28:23Z</time>
      </trkpt>
      <trkpt lat="44.93065" lon="4.88535">
        <ele>111.3</ele>
        <time>2023-09-03T08:28:29Z</time>
      </trkpt>
      <trkpt lat="44.93053" lon="4.88511">
        <ele>111.2</ele>
        <time>2023-09-03T08:28:35Z</time>
      </trkpt>
      <trkpt lat="44.93039" lon="4.88491">
        <ele>111.2</ele>
        <time>2023-09-03T08:28:41Z</time>
      </trkpt>
      <trkpt lat="44.93021" lon="4.88478">
        <ele>111.3</ele>
        <time>2023-09-03T08:28:48Z</time>
      </trkpt>
      <trkpt lat="44.93002" lon="4.8847">
        <ele>111.3</ele>
        <time>2023-09-03T08:28:55Z</time>
      </trkpt>
      <trkpt lat="44.92983" lon="4.88471">
        <ele>111.4</ele>
        <time>2023-09-03T08:29:02Z</time>
      </trkpt>
      <trkpt lat="44.92965" lon="4.88476">
        <ele>111.4</ele>
        <time>2023-09-03T08:29:09Z</time>
      </trkpt>
      <trkpt lat="44.92948" lon="4.88487">
        <ele>111.3</ele>
        <time>2023-09-03T08:29:16Z</time>
      </trkpt>
      <trkpt lat="44.92934" lon="4.88502">
        <ele>111.4</ele>
        <time>2023-09-03T08:29:22Z</time>
      </trkpt>
      <trkpt lat="44.92921" lon="4.88522">
        <ele>111.4</ele>
        <time>2023-09-03T08:29:28Z</time>
      </trkpt>
      <trkpt lat="44.92903" lon="4.88539">
        <ele>111.4</ele>
        <time>2023-09-03T08:29:34Z</time>
      </trkpt>
      <trkpt lat="44.92886" lon="4.88549">
        <ele>111.5</ele>
        <time>2023-09-03T08:29:40Z</time>
      </trkpt>
      <trkpt lat="44.92866" lon="4.88555">
        <ele>111.5</ele>
        <time>2023-09-03T08:29:47Z</time>
      </trkpt>
      <trkpt lat="44.92847" lon="4.88563">
        <ele>111.6</ele>
        <time>2023-09-03T08:29:54Z</time>
      </trkpt>
      <trkpt lat="44.92837" lon="4.88583">
        <ele>111.7</ele>
        <time>2023-09-03T08:30:02Z</time>
      </trkpt>
      <trkpt lat="44.92823" lon="4.88603">
        <ele>111.8</ele>
        <time>2023-09-03T08:30:10Z</time>
      </trkpt>
      <trkpt lat="44.9282" lon="4.88618">
        <ele>111.7</ele>
        <time>2023-09-03T08:30:14Z</time>
      </trkpt>
      <trkpt lat="44.92817" lon="4.88626">
        <ele>111.7</ele>
        <time>2023-09-03T08:32:30Z</time>
      </trkpt>
      <trkpt lat="44.92817" lon="4.88624">
        <ele>111.7</ele>
        <time>2023-09-03T08:32:31Z</time>
      </trkpt>
      <trkpt lat="44.92823" lon="4.88607">
        <ele>111.7</ele>
        <time>2023-09-03T08:32:37Z</time>
      </trkpt>
      <trkpt lat="44.92837" lon="4.88606">
        <ele>111.7</ele>
        <time>2023-09-03T08:32:42Z</time>
      </trkpt>
      <trkpt lat="44.92838" lon="4.88591">
        <ele>111.7</ele>
        <time>2023-09-03T08:35:26Z</time>
      </trkpt>
      <trkpt lat="44.92852" lon="4.88606">
        <ele>111.7</ele>
        <time>2023-09-03T08:35:34Z</time>
      </trkpt>
      <trkpt lat="44.92864" lon="4.88627">
        <ele>111.8</ele>
        <time>2023-09-03T08:35:42Z</time>
      </trkpt>
      <trkpt lat="44.92871" lon="4.88652">
        <ele>111.9</ele>
        <time>2023-09-03T08:35:50Z</time>
      </trkpt>
      <trkpt lat="44.92878" lon="4.88677">
        <ele>113</ele>
        <time>2023-09-03T08:35:59Z</time>
      </trkpt>
      <trkpt lat="44.92893" lon="4.88693">
        <ele>115</ele>
        <time>2023-09-03T08:36:06Z</time>
      </trkpt>
      <trkpt lat="44.92911" lon="4.88706">
        <ele>116.3</ele>
        <time>2023-09-03T08:36:11Z</time>
      </trkpt>
      <trkpt lat="44.92928" lon="4.88719">
        <ele>116.4</ele>
        <time>2023-09-03T08:36:16Z</time>
      </trkpt>
      <trkpt lat="44.92946" lon="4.88731">
        <ele>116.6</ele>
        <time>2023-09-03T08:36:23Z</time>
      </trkpt>
      <trkpt lat="44.92965" lon="4.88742">
        <ele>116.8</ele>
        <time>2023-09-03T08:36:30Z</time>
      </trkpt>
      <trkpt lat="44.92984" lon="4.88752">
        <ele>116.6</ele>
        <time>2023-09-03T08:36:36Z</time>
      </trkpt>
      <trkpt lat="44.93002" lon="4.88763">
        <ele>116.5</ele>
        <time>2023-09-03T08:36:42Z</time>
      </trkpt>
      <trkpt lat="44.93015" lon="4.88766">
        <ele>116.7</ele>
        <time>2023-09-03T08:36:50Z</time>
      </trkpt>
      <trkpt lat="44.92995" lon="4.88757">
        <ele>116.5</ele>
        <time>2023-09-03T08:36:58Z</time>
      </trkpt>
      <trkpt lat="44.92977" lon="4.88749">
        <ele>116.6</ele>
        <time>2023-09-03T08:37:03Z</time>
      </trkpt>
      <trkpt lat="44.92958" lon="4.88738">
        <ele>116.7</ele>
        <time>2023-09-03T08:37:08Z</time>
      </trkpt>
      <trkpt lat="44.92938" lon="4.88729">
        <ele>116.5</ele>
        <time>2023-09-03T08:37:13Z</time>
      </trkpt>
      <trkpt lat="44.9292" lon="4.8872">
        <ele>116.4</ele>
        <time>2023-09-03T08:37:18Z</time>
      </trkpt>
      <trkpt lat="44.92899" lon="4.88714">
        <ele>116.2</ele>
        <time>2023-09-03T08:37:24Z</time>
      </trkpt>
      <trkpt lat="44.92881" lon="4.88711">
        <ele>115.7</ele>
        <time>2023-09-03T08:37:29Z</time>
      </trkpt>
      <trkpt lat="44.92864" lon="4.88697">
        <ele>114.8</ele>
        <time>2023-09-03T08:37:34Z</time>
      </trkpt>
      <trkpt lat="44.92849" lon="4.88682">
        <ele>113.8</ele>
        <time>2023-09-03T08:37:38Z</time>
      </trkpt>
      <trkpt lat="44.92835" lon="4.88664">
        <ele>112.9</ele>
        <time>2023-09-03T08:37:42Z</time>
      </trkpt>
      <trkpt lat="44.92823" lon="4.88645">
        <ele>112.3</ele>
        <time>2023-09-03T08:37:46Z</time>
      </trkpt>
      <trkpt lat="44.92815" lon="4.88617">
        <ele>111.8</ele>
        <time>2023-09-03T08:37:51Z</time>
      </trkpt>
      <trkpt lat="44.92818" lon="4.88589">
        <ele>111.8</ele>
        <time>2023-09-03T08:37:57Z</time>
      </trkpt>
      <trkpt lat="44.92833" lon="4.88568">
        <ele>111.7</ele>
        <time>2023-09-03T08:38:03Z</time>
      </trkpt>
      <trkpt lat="44.92852" lon="4.88558">
        <ele>111.5</ele>
        <time>2023-09-03T08:38:09Z</time>
      </trkpt>
      <trkpt lat="44.92872" lon="4.88551">
        <ele>111.5</ele>
        <time>2023-09-03T08:38:15Z</time>
      </trkpt>
      <trkpt lat="44.92892" lon="4.88545">
        <ele>111.4</ele>
        <time>2023-09-03T08:38:21Z</time>
      </trkpt>
      <trkpt lat="44.9291" lon="4.88532">
        <ele>111.4</ele>
        <time>2023-09-03T08:38:27Z</time>
      </trkpt>
      <trkpt lat="44.92925" lon="4.88517">
        <ele>111.4</ele>
        <time>2023-09-03T08:38:33Z</time>
      </trkpt>
      <trkpt lat="44.92938" lon="4.88498">
        <ele>111.3</ele>
        <time>2023-09-03T08:38:39Z</time>
      </trkpt>
      <trkpt lat="44.92954" lon="4.88481">
        <ele>111.3</ele>
        <time>2023-09-03T08:38:46Z</time>
      </trkpt>
      <trkpt lat="44.92972" lon="4.88471">
        <ele>111.4</ele>
        <time>2023-09-03T08:38:52Z</time>
      </trkpt>
      <trkpt lat="44.9299" lon="4.88466">
        <ele>111.4</ele>
        <time>2023-09-03T08:38:58Z</time>
      </trkpt>
      <trkpt lat="44.93009" lon="4.88465">
        <ele>111.3</ele>
        <time>2023-09-03T08:39:03Z</time>
      </trkpt>
      <trkpt lat="44.93031" lon="4.88475">
        <ele>111.2</ele>
        <time>2023-09-03T08:39:08Z</time>
      </trkpt>
      <trkpt lat="44.93046" lon="4.88489">
        <ele>111.2</ele>
        <time>2023-09-03T08:39:12Z</time>
      </trkpt>
      <trkpt lat="44.9306" lon="4.88508">
        <ele>111.2</ele>
        <time>2023-09-03T08:39:16Z</time>
      </trkpt>
      <trkpt lat="44.93073" lon="4.8853">
        <ele>111.3</ele>
        <time>2023-09-03T08:39:20Z</time>
      </trkpt>
      <trkpt lat="44.93075" lon="4.88536">
        <ele>111.3</ele>
        <time>2023-09-03T08:39:21Z</time>
      </trkpt>
      <trkpt lat="44.93082" lon="4.8856">
        <ele>111.5</ele>
        <time>2023-09-03T08:39:25Z</time>
      </trkpt>
      <trkpt lat="44.93083" lon="4.88566">
        <ele>111.5</ele>
        <time>2023-09-03T08:39:26Z</time>
      </trkpt>
      <trkpt lat="44.93083" lon="4.88591">
        <ele>112.2</ele>
        <time>2023-09-03T08:39:30Z</time>
      </trkpt>
      <trkpt lat="44.93081" lon="4.88612">
        <ele>112.7</ele>
        <time>2023-09-03T08:39:33Z</time>
      </trkpt>
      <trkpt lat="44.93079" lon="4.88625">
        <ele>113.1</ele>
        <time>2023-09-03T08:39:35Z</time>
      </trkpt>
      <trkpt lat="44.93076" lon="4.88652">
        <ele>112.9</ele>
        <time>2023-09-03T08:39:39Z</time>
      </trkpt>
      <trkpt lat="44.93074" lon="4.88664">
        <ele>113</ele>
        <time>2023-09-03T08:39:41Z</time>
      </trkpt>
      <trkpt lat="44.93069" lon="4.88691">
        <ele>113.2</ele>
        <time>2023-09-03T08:39:48Z</time>
      </trkpt>
      <trkpt lat="44.93062" lon="4.88717">
        <ele>113.1</ele>
        <time>2023-09-03T08:39:56Z</time>
      </trkpt>
      <trkpt lat="44.93051" lon="4.88737">
        <ele>112.7</ele>
        <time>2023-09-03T08:40:04Z</time>
      </trkpt>
      <trkpt lat="44.93031" lon="4.88729">
        <ele>112.6</ele>
        <time>2023-09-03T08:40:11Z</time>
      </trkpt>
      <trkpt lat="44.93012" lon="4.8872">
        <ele>112.5</ele>
        <time>2023-09-03T08:40:18Z</time>
      </trkpt>
      <trkpt lat="44.92994" lon="4.88712">
        <ele>112.1</ele>
        <time>2023-09-03T08:40:25Z</time>
      </trkpt>
      <trkpt lat="44.92979" lon="4.88714">
        <ele>112.2</ele>
        <time>2023-09-03T08:40:32Z</time>
      </trkpt>
      <trkpt lat="44.92972" lon="4.8874">
        <ele>116.8</ele>
        <time>2023-09-03T08:40:41Z</time>
      </trkpt>
      <trkpt lat="44.9297" lon="4.88741">
        <ele>116.8</ele>
        <time>2023-09-03T08:40:42Z</time>
      </trkpt>
      <trkpt lat="44.92952" lon="4.88734">
        <ele>116.7</ele>
        <time>2023-09-03T08:40:48Z</time>
      </trkpt>
      <trkpt lat="44.92933" lon="4.88725">
        <ele>116.5</ele>
        <time>2023-09-03T08:40:54Z</time>
      </trkpt>
      <trkpt lat="44.92917" lon="4.88714">
        <ele>116.3</ele>
        <time>2023-09-03T08:41:00Z</time>
      </trkpt>
      <trkpt lat="44.92898" lon="4.88704">
        <ele>116.2</ele>
        <time>2023-09-03T08:41:10Z</time>
      </trkpt>
      <trkpt lat="44.9288" lon="4.88696">
        <ele>115.5</ele>
        <time>2023-09-03T08:41:18Z</time>
      </trkpt>
      <trkpt lat="44.9286" lon="4.88687">
        <ele>114.4</ele>
        <time>2023-09-03T08:41:24Z</time>
      </trkpt>
      <trkpt lat="44.92843" lon="4.88678">
        <ele>113.5</ele>
        <time>2023-09-03T08:41:29Z</time>
      </trkpt>
      <trkpt lat="44.92825" lon="4.88662">
        <ele>112.7</ele>
        <time>2023-09-03T08:41:35Z</time>
      </trkpt>
      <trkpt lat="44.92814" lon="4.88637">
        <ele>112.1</ele>
        <time>2023-09-03T08:41:41Z</time>
      </trkpt>
      <trkpt lat="44.92816" lon="4.88611">
        <ele>111.8</ele>
        <time>2023-09-03T08:41:46Z</time>
      </trkpt>
      <trkpt lat="44.92824" lon="4.88587">
        <ele>111.8</ele>
        <time>2023-09-03T08:41:53Z</time>
      </trkpt>
      <trkpt lat="44.9284" lon="4.88571">
        <ele>111.7</ele>
        <time>2023-09-03T08:42:01Z</time>
      </trkpt>
      <trkpt lat="44.92857" lon="4.88573">
        <ele>111.4</ele>
        <time>2023-09-03T08:42:09Z</time>
      </trkpt>
      <trkpt lat="44.92865" lon="4.88596">
        <ele>111.4</ele>
        <time>2023-09-03T08:42:17Z</time>
      </trkpt>
      <trkpt lat="44.92875" lon="4.88619">
        <ele>111.5</ele>
        <time>2023-09-03T08:42:23Z</time>
      </trkpt>
      <trkpt lat="44.92887" lon="4.88638">
        <ele>111.6</ele>
        <time>2023-09-03T08:42:28Z</time>
      </trkpt>
      <trkpt lat="44.92895" lon="4.8866">
        <ele>111.5</ele>
        <time>2023-09-03T08:42:34Z</time>
      </trkpt>
      <trkpt lat="44.92892" lon="4.88685">
        <ele>113</ele>
        <time>2023-09-03T08:42:43Z</time>
      </trkpt>
      <trkpt lat="44.92905" lon="4.88705">
        <ele>115.7</ele>
        <time>2023-09-03T08:42:51Z</time>
      </trkpt>
      <trkpt lat="44.92923" lon="4.88717">
        <ele>116.4</ele>
        <time>2023-09-03T08:42:57Z</time>
      </trkpt>
      <trkpt lat="44.92943" lon="4.88729">
        <ele>116.5</ele>
        <time>2023-09-03T08:43:04Z</time>
      </trkpt>
      <trkpt lat="44.92962" lon="4.8874">
        <ele>116.8</ele>
        <time>2023-09-03T08:43:10Z</time>
      </trkpt>
      <trkpt lat="44.92979" lon="4.88748">
        <ele>116.6</ele>
        <time>2023-09-03T08:43:15Z</time>
      </trkpt>
      <trkpt lat="44.92997" lon="4.88751">
        <ele>116.5</ele>
        <time>2023-09-03T08:43:22Z</time>
      </trkpt>
      <trkpt lat="44.92995" lon="4.88753">
        <ele>116.5</ele>
        <time>2023-09-03T08:43:25Z</time>
      </trkpt>
      <trkpt lat="44.92977" lon="4.88748">
        <ele>116.7</ele>
        <time>2023-09-03T08:43:30Z</time>
      </trkpt>
      <trkpt lat="44.92959" lon="4.88739">
        <ele>116.8</ele>
        <time>2023-09-03T08:43:34Z</time>
      </trkpt>
      <trkpt lat="44.92939" lon="4.88731">
        <ele>116.5</ele>
        <time>2023-09-03T08:43:38Z</time>
      </trkpt>
      <trkpt lat="44.9292" lon="4.88723">
        <ele>116.4</ele>
        <time>2023-09-03T08:43:42Z</time>
      </trkpt>
      <trkpt lat="44.92903" lon="4.88712">
        <ele>116.2</ele>
        <time>2023-09-03T08:43:46Z</time>
      </trkpt>
      <trkpt lat="44.92888" lon="4.88698">
        <ele>114.8</ele>
        <time>2023-09-03T08:43:50Z</time>
      </trkpt>
      <trkpt lat="44.92882" lon="4.8869">
        <ele>114</ele>
        <time>2023-09-03T08:43:52Z</time>
      </trkpt>
      <trkpt lat="44.92878" lon="4.88679">
        <ele>112.8</ele>
        <time>2023-09-03T08:43:54Z</time>
      </trkpt>
      <trkpt lat="44.92875" lon="4.88669">
        <ele>112</ele>
        <time>2023-09-03T08:43:56Z</time>
      </trkpt>
      <trkpt lat="44.92869" lon="4.88658">
        <ele>111.9</ele>
        <time>2023-09-03T08:43:58Z</time>
      </trkpt>
      <trkpt lat="44.92857" lon="4.88637">
        <ele>111.8</ele>
        <time>2023-09-03T08:44:02Z</time>
      </trkpt>
      <trkpt lat="44.92843" lon="4.88617">
        <ele>111.7</ele>
        <time>2023-09-03T08:44:08Z</time>
      </trkpt>
      <trkpt lat="44.92843" lon="4.88616">
        <ele>111.7</ele>
        <time>2023-09-03T08:44:11Z</time>
      </trkpt>
      <trkpt lat="44.92845" lon="4.88618">
        <ele>111.7</ele>
        <time>2023-09-03T08:44:15Z</time>
      </trkpt>
      <trkpt lat="44.9286" lon="4.88638">
        <ele>111.8</ele>
        <time>2023-09-03T08:44:24Z</time>
      </trkpt>
      <trkpt lat="44.92872" lon="4.88659">
        <ele>111.9</ele>
        <time>2023-09-03T08:44:29Z</time>
      </trkpt>
      <trkpt lat="44.92879" lon="4.88681">
        <ele>113.3</ele>
        <time>2023-09-03T08:44:35Z</time>
      </trkpt>
      <trkpt lat="44.92894" lon="4.88696">
        <ele>115.2</ele>
        <time>2023-09-03T08:44:40Z</time>
      </trkpt>
      <trkpt lat="44.92911" lon="4.88712">
        <ele>116.3</ele>
        <time>2023-09-03T08:44:45Z</time>
      </trkpt>
      <trkpt lat="44.9293" lon="4.88726">
        <ele>116.4</ele>
        <time>2023-09-03T08:44:50Z</time>
      </trkpt>
      <trkpt lat="44.92947" lon="4.88735">
        <ele>116.6</ele>
        <time>2023-09-03T08:44:54Z</time>
      </trkpt>
      <trkpt lat="44.92968" lon="4.88746">
        <ele>116.8</ele>
        <time>2023-09-03T08:44:59Z</time>
      </trkpt>
      <trkpt lat="44.92985" lon="4.88754">
        <ele>116.5</ele>
        <time>2023-09-03T08:45:03Z</time>
      </trkpt>
      <trkpt lat="44.93002" lon="4.88762">
        <ele>116.5</ele>
        <time>2023-09-03T08:45:07Z</time>
      </trkpt>
      <trkpt lat="44.93017" lon="4.88776">
        <ele>117</ele>
        <time>2023-09-03T08:45:11Z</time>
      </trkpt>
      <trkpt lat="44.93025" lon="4.88786">
        <ele>117.8</ele>
        <time>2023-09-03T08:45:14Z</time>
      </trkpt>
      <trkpt lat="44.93029" lon="4.88793">
        <ele>118.3</ele>
        <time>2023-09-03T08:45:16Z</time>
      </trkpt>
      <trkpt lat="44.93042" lon="4.88814">
        <ele>119.7</ele>
        <time>2023-09-03T08:45:22Z</time>
      </trkpt>
      <trkpt lat="44.93052" lon="4.88835">
        <ele>120.6</ele>
        <time>2023-09-03T08:45:28Z</time>
      </trkpt>
      <trkpt lat="44.93065" lon="4.88854">
        <ele>120.7</ele>
        <time>2023-09-03T08:45:37Z</time>
      </trkpt>
      <trkpt lat="44.93078" lon="4.88846">
        <ele>120.4</ele>
        <time>2023-09-03T08:45:44Z</time>
      </trkpt>
      <trkpt lat="44.93086" lon="4.88842">
        <ele>120.2</ele>
        <time>2023-09-03T08:46:54Z</time>
      </trkpt>
      <trkpt lat="44.93086" lon="4.88842">
        <ele>120.2</ele>
        <time>2023-09-03T08:46:57Z</time>
      </trkpt>
      <trkpt lat="44.93089" lon="4.88843">
        <ele>120.1</ele>
        <time>2023-09-03T08:47:57Z</time>
      </trkpt>
      <trkpt lat="44.93108" lon="4.88845">
        <ele>119.6</ele>
        <time>2023-09-03T08:48:11Z</time>
      </trkpt>
      <trkpt lat="44.93126" lon="4.88844">
        <ele>119</ele>
        <time>2023-09-03T08:48:15Z</time>
      </trkpt>
      <trkpt lat="44.93148" lon="4.88852">
        <ele>118.2</ele>
        <time>2023-09-03T08:48:19Z</time>
      </trkpt>
      <trkpt lat="44.93167" lon="4.88859">
        <ele>115.9</ele>
        <time>2023-09-03T08:48:23Z</time>
      </trkpt>
      <trkpt lat="44.93182" lon="4.88847">
        <ele>112.5</ele>
        <time>2023-09-03T08:48:28Z</time>
      </trkpt>
      <trkpt lat="44.93187" lon="4.88827">
        <ele>111.7</ele>
        <time>2023-09-03T08:48:35Z</time>
      </trkpt>
      <trkpt lat="44.93198" lon="4.88851">
        <ele>112.4</ele>
        <time>2023-09-03T08:48:39Z</time>
      </trkpt>
      <trkpt lat="44.93213" lon="4.88864">
        <ele>113.3</ele>
        <time>2023-09-03T08:48:43Z</time>
      </trkpt>
      <trkpt lat="44.93232" lon="4.88873">
        <ele>114</ele>
        <time>2023-09-03T08:48:47Z</time>
      </trkpt>
      <trkpt lat="44.93253" lon="4.88878">
        <ele>114.3</ele>
        <time>2023-09-03T08:48:51Z</time>
      </trkpt>
      <trkpt lat="44.93258" lon="4.8888">
        <ele>114.3</ele>
        <time>2023-09-03T08:48:52Z</time>
      </trkpt>
      <trkpt lat="44.93269" lon="4.88882">
        <ele>114.3</ele>
        <time>2023-09-03T08:48:54Z</time>
      </trkpt>
      <trkpt lat="44.93289" lon="4.88881">
        <ele>114.3</ele>
        <time>2023-09-03T08:48:58Z</time>
      </trkpt>
      <trkpt lat="44.93295" lon="4.88882">
        <ele>114.3</ele>
        <time>2023-09-03T08:48:59Z</time>
      </trkpt>
      <trkpt lat="44.93316" lon="4.88878">
        <ele>114.3</ele>
        <time>2023-09-03T08:49:03Z</time>
      </trkpt>
      <trkpt lat="44.93323" lon="4.88868">
        <ele>113.2</ele>
        <time>2023-09-03T08:49:05Z</time>
      </trkpt>
      <trkpt lat="44.93322" lon="4.88853">
        <ele>112.7</ele>
        <time>2023-09-03T08:49:07Z</time>
      </trkpt>
      <trkpt lat="44.93319" lon="4.88823">
        <ele>111.8</ele>
        <time>2023-09-03T08:49:11Z</time>
      </trkpt>
      <trkpt lat="44.93316" lon="4.8881">
        <ele>111.5</ele>
        <time>2023-09-03T08:49:13Z</time>
      </trkpt>
      <trkpt lat="44.93307" lon="4.88802">
        <ele>111.5</ele>
        <time>2023-09-03T08:49:15Z</time>
      </trkpt>
      <trkpt lat="44.93294" lon="4.88798">
        <ele>111.4</ele>
        <time>2023-09-03T08:49:17Z</time>
      </trkpt>
      <trkpt lat="44.93283" lon="4.88793">
        <ele>111.3</ele>
        <time>2023-09-03T08:49:19Z</time>
      </trkpt>
      <trkpt lat="44.93266" lon="4.88788">
        <ele>111.1</ele>
        <time>2023-09-03T08:49:23Z</time>
      </trkpt>
      <trkpt lat="44.93271" lon="4.88793">
        <ele>111.1</ele>
        <time>2023-09-03T08:49:26Z</time>
      </trkpt>
      <trkpt lat="44.93283" lon="4.88798">
        <ele>111.2</ele>
        <time>2023-09-03T08:49:28Z</time>
      </trkpt>
      <trkpt lat="44.93302" lon="4.88805">
        <ele>111.5</ele>
        <time>2023-09-03T08:49:32Z</time>
      </trkpt>
      <trkpt lat="44.93307" lon="4.88797">
        <ele>111.5</ele>
        <time>2023-09-03T08:49:34Z</time>
      </trkpt>
      <trkpt lat="44.9331" lon="4.88773">
        <ele>111.5</ele>
        <time>2023-09-03T08:49:37Z</time>
      </trkpt>
      <trkpt lat="44.93308" lon="4.88753">
        <ele>111.5</ele>
        <time>2023-09-03T08:49:40Z</time>
      </trkpt>
      <trkpt lat="44.93295" lon="4.88744">
        <ele>111.3</ele>
        <time>2023-09-03T08:49:43Z</time>
      </trkpt>
      <trkpt lat="44.93283" lon="4.88729">
        <ele>111.2</ele>
        <time>2023-09-03T08:49:46Z</time>
      </trkpt>
      <trkpt lat="44.93281" lon="4.88716">
        <ele>111.1</ele>
        <time>2023-09-03T08:49:48Z</time>
      </trkpt>
      <trkpt lat="44.93284" lon="4.88701">
        <ele>110.9</ele>
        <time>2023-09-03T08:49:50Z</time>
      </trkpt>
      <trkpt lat="44.9329" lon="4.88676">
        <ele>110.8</ele>
        <time>2023-09-03T08:49:54Z</time>
      </trkpt>
      <trkpt lat="44.93286" lon="4.88671">
        <ele>110.8</ele>
        <time>2023-09-03T08:49:56Z</time>
      </trkpt>
      <trkpt lat="44.93279" lon="4.8867">
        <ele>110.8</ele>
        <time>2023-09-03T08:49:58Z</time>
      </trkpt>
      <trkpt lat="44.93259" lon="4.88669">
        <ele>110.9</ele>
        <time>2023-09-03T08:50:03Z</time>
      </trkpt>
      <trkpt lat="44.93263" lon="4.8867">
        <ele>110.9</ele>
        <time>2023-09-03T08:50:07Z</time>
      </trkpt>
      <trkpt lat="44.93285" lon="4.8867">
        <ele>110.9</ele>
        <time>2023-09-03T08:50:11Z</time>
      </trkpt>
      <trkpt lat="44.93289" lon="4.88668">
        <ele>110.9</ele>
        <time>2023-09-03T08:50:12Z</time>
      </trkpt>
      <trkpt lat="44.93297" lon="4.88671">
        <ele>110.9</ele>
        <time>2023-09-03T08:50:15Z</time>
      </trkpt>
      <trkpt lat="44.93296" lon="4.88674">
        <ele>110.9</ele>
        <time>2023-09-03T08:50:17Z</time>
      </trkpt>
      <trkpt lat="44.93276" lon="4.88679">
        <ele>110.9</ele>
        <time>2023-09-03T08:50:20Z</time>
      </trkpt>
      <trkpt lat="44.93255" lon="4.88672">
        <ele>111.2</ele>
        <time>2023-09-03T08:50:24Z</time>
      </trkpt>
      <trkpt lat="44.93235" lon="4.88672">
        <ele>111.2</ele>
        <time>2023-09-03T08:50:28Z</time>
      </trkpt>
      <trkpt lat="44.93218" lon="4.88672">
        <ele>111.2</ele>
        <time>2023-09-03T08:50:32Z</time>
      </trkpt>
      <trkpt lat="44.93212" lon="4.88677">
        <ele>111.2</ele>
        <time>2023-09-03T08:50:34Z</time>
      </trkpt>
      <trkpt lat="44.93212" lon="4.88704">
        <ele>111.3</ele>
        <time>2023-09-03T08:50:40Z</time>
      </trkpt>
      <trkpt lat="44.93223" lon="4.88725">
        <ele>111.2</ele>
        <time>2023-09-03T08:50:46Z</time>
      </trkpt>
      <trkpt lat="44.93222" lon="4.88751">
        <ele>111.2</ele>
        <time>2023-09-03T08:50:52Z</time>
      </trkpt>
      <trkpt lat="44.93221" lon="4.88761">
        <ele>111.2</ele>
        <time>2023-09-03T08:50:57Z</time>
      </trkpt>
      <trkpt lat="44.9323" lon="4.88757">
        <ele>111.2</ele>
        <time>2023-09-03T08:51:00Z</time>
      </trkpt>
      <trkpt lat="44.93242" lon="4.88733">
        <ele>111.2</ele>
        <time>2023-09-03T08:51:05Z</time>
      </trkpt>
      <trkpt lat="44.93245" lon="4.88705">
        <ele>111.3</ele>
        <time>2023-09-03T08:51:09Z</time>
      </trkpt>
      <trkpt lat="44.9322" lon="4.88695">
        <ele>111.2</ele>
        <time>2023-09-03T08:51:14Z</time>
      </trkpt>
      <trkpt lat="44.93212" lon="4.887">
        <ele>111.2</ele>
        <time>2023-09-03T08:51:16Z</time>
      </trkpt>
      <trkpt lat="44.93199" lon="4.88723">
        <ele>111.2</ele>
        <time>2023-09-03T08:51:20Z</time>
      </trkpt>
      <trkpt lat="44.93191" lon="4.88748">
        <ele>111.3</ele>
        <time>2023-09-03T08:51:24Z</time>
      </trkpt>
      <trkpt lat="44.93187" lon="4.88776">
        <ele>111.4</ele>
        <time>2023-09-03T08:51:28Z</time>
      </trkpt>
      <trkpt lat="44.93183" lon="4.88795">
        <ele>111.5</ele>
        <time>2023-09-03T08:51:31Z</time>
      </trkpt>
      <trkpt lat="44.93176" lon="4.88814">
        <ele>111.6</ele>
        <time>2023-09-03T08:51:34Z</time>
      </trkpt>
      <trkpt lat="44.93176" lon="4.88826">
        <ele>111.7</ele>
        <time>2023-09-03T08:51:36Z</time>
      </trkpt>
      <trkpt lat="44.9318" lon="4.88836">
        <ele>111.8</ele>
        <time>2023-09-03T08:51:38Z</time>
      </trkpt>
      <trkpt lat="44.93187" lon="4.88847">
        <ele>111.8</ele>
        <time>2023-09-03T08:51:40Z</time>
      </trkpt>
      <trkpt lat="44.93197" lon="4.88861">
        <ele>112.4</ele>
        <time>2023-09-03T08:51:43Z</time>
      </trkpt>
      <trkpt lat="44.93212" lon="4.8888">
        <ele>113.2</ele>
        <time>2023-09-03T08:51:48Z</time>
      </trkpt>
      <trkpt lat="44.93214" lon="4.8889">
        <ele>113.5</ele>
        <time>2023-09-03T08:51:50Z</time>
      </trkpt>
      <trkpt lat="44.93215" lon="4.88898">
        <ele>114.9</ele>
        <time>2023-09-03T08:51:52Z</time>
      </trkpt>
      <trkpt lat="44.93204" lon="4.88921">
        <ele>120.5</ele>
        <time>2023-09-03T08:52:00Z</time>
      </trkpt>
      <trkpt lat="44.93195" lon="4.88929">
        <ele>125.4</ele>
        <time>2023-09-03T08:52:08Z</time>
      </trkpt>
      <trkpt lat="44.93211" lon="4.88947">
        <ele>127.5</ele>
        <time>2023-09-03T08:52:15Z</time>
      </trkpt>
      <trkpt lat="44.93212" lon="4.88976">
        <ele>129.2</ele>
        <time>2023-09-03T08:52:21Z</time>
      </trkpt>
      <trkpt lat="44.93225" lon="4.88998">
        <ele>130.2</ele>
        <time>2023-09-03T08:52:29Z</time>
      </trkpt>
      <trkpt lat="44.93245" lon="4.89011">
        <ele>130.5</ele>
        <time>2023-09-03T08:52:36Z</time>
      </trkpt>
      <trkpt lat="44.93258" lon="4.89014">
        <ele>130.5</ele>
        <time>2023-09-03T08:52:38Z</time>
      </trkpt>
      <trkpt lat="44.93273" lon="4.88997">
        <ele>130.5</ele>
        <time>2023-09-03T08:52:42Z</time>
      </trkpt>
      <trkpt lat="44.93282" lon="4.88987">
        <ele>130.4</ele>
        <time>2023-09-03T08:52:45Z</time>
      </trkpt>
      <trkpt lat="44.93303" lon="4.88986">
        <ele>130.7</ele>
        <time>2023-09-03T08:52:50Z</time>
      </trkpt>
      <trkpt lat="44.93323" lon="4.88988">
        <ele>131.3</ele>
        <time>2023-09-03T08:52:55Z</time>
      </trkpt>
      <trkpt lat="44.9334" lon="4.89001">
        <ele>131.9</ele>
        <time>2023-09-03T08:52:59Z</time>
      </trkpt>
      <trkpt lat="44.93354" lon="4.89005">
        <ele>132.2</ele>
        <time>2023-09-03T08:53:03Z</time>
      </trkpt>
      <trkpt lat="44.93377" lon="4.89008">
        <ele>132.2</ele>
        <time>2023-09-03T08:53:09Z</time>
      </trkpt>
      <trkpt lat="44.93396" lon="4.89012">
        <ele>132</ele>
        <time>2023-09-03T08:53:17Z</time>
      </trkpt>
      <trkpt lat="44.93408" lon="4.89037">
        <ele>132.2</ele>
        <time>2023-09-03T08:53:22Z</time>
      </trkpt>
      <trkpt lat="44.93409" lon="4.89066">
        <ele>132.4</ele>
        <time>2023-09-03T08:53:27Z</time>
      </trkpt>
      <trkpt lat="44.9341" lon="4.89093">
        <ele>132.1</ele>
        <time>2023-09-03T08:53:32Z</time>
      </trkpt>
      <trkpt lat="44.93413" lon="4.89103">
        <ele>132.1</ele>
        <time>2023-09-03T08:53:35Z</time>
      </trkpt>
      <trkpt lat="44.93433" lon="4.89116">
        <ele>131.8</ele>
        <time>2023-09-03T08:53:39Z</time>
      </trkpt>
      <trkpt lat="44.93447" lon="4.89136">
        <ele>132.6</ele>
        <time>2023-09-03T08:53:44Z</time>
      </trkpt>
      <trkpt lat="44.93465" lon="4.8915">
        <ele>132.6</ele>
        <time>2023-09-03T08:53:49Z</time>
      </trkpt>
      <trkpt lat="44.93472" lon="4.8916">
        <ele>132.6</ele>
        <time>2023-09-03T08:53:51Z</time>
      </trkpt>
      <trkpt lat="44.93476" lon="4.89173">
        <ele>132.6</ele>
        <time>2023-09-03T08:53:53Z</time>
      </trkpt>
      <trkpt lat="44.93479" lon="4.89199">
        <ele>132.5</ele>
        <time>2023-09-03T08:53:58Z</time>
      </trkpt>
      <trkpt lat="44.93469" lon="4.89224">
        <ele>132.5</ele>
        <time>2023-09-03T08:54:03Z</time>
      </trkpt>
      <trkpt lat="44.9346" lon="4.89252">
        <ele>132.4</ele>
        <time>2023-09-03T08:54:06Z</time>
      </trkpt>
      <trkpt lat="44.93459" lon="4.89281">
        <ele>131.6</ele>
        <time>2023-09-03T08:54:10Z</time>
      </trkpt>
      <trkpt lat="44.93472" lon="4.89299">
        <ele>131.4</ele>
        <time>2023-09-03T08:54:16Z</time>
      </trkpt>
      <trkpt lat="44.93488" lon="4.89318">
        <ele>131.2</ele>
        <time>2023-09-03T08:54:23Z</time>
      </trkpt>
      <trkpt lat="44.93508" lon="4.8933">
        <ele>130.9</ele>
        <time>2023-09-03T08:54:28Z</time>
      </trkpt>
      <trkpt lat="44.93519" lon="4.89349">
        <ele>131</ele>
        <time>2023-09-03T08:54:34Z</time>
      </trkpt>
      <trkpt lat="44.93512" lon="4.89375">
        <ele>131.3</ele>
        <time>2023-09-03T08:54:39Z</time>
      </trkpt>
      <trkpt lat="44.93497" lon="4.89398">
        <ele>131.1</ele>
        <time>2023-09-03T08:54:43Z</time>
      </trkpt>
      <trkpt lat="44.93491" lon="4.89401">
        <ele>131.1</ele>
        <time>2023-09-03T08:54:44Z</time>
      </trkpt>
      <trkpt lat="44.93469" lon="4.89401">
        <ele>131.1</ele>
        <time>2023-09-03T08:54:48Z</time>
      </trkpt>
      <trkpt lat="44.93449" lon="4.89393">
        <ele>131.1</ele>
        <time>2023-09-03T08:54:52Z</time>
      </trkpt>
      <trkpt lat="44.93442" lon="4.89391">
        <ele>131.1</ele>
        <time>2023-09-03T08:54:54Z</time>
      </trkpt>
      <trkpt lat="44.93438" lon="4.89393">
        <ele>131.1</ele>
        <time>2023-09-03T08:54:56Z</time>
      </trkpt>
      <trkpt lat="44.93435" lon="4.89397">
        <ele>131.1</ele>
        <time>2023-09-03T08:54:58Z</time>
      </trkpt>
      <trkpt lat="44.93433" lon="4.89407">
        <ele>131.1</ele>
        <time>2023-09-03T08:55:00Z</time>
      </trkpt>
      <trkpt lat="44.93435" lon="4.89418">
        <ele>131.1</ele>
        <time>2023-09-03T08:55:02Z</time>
      </trkpt>
      <trkpt lat="44.93445" lon="4.89438">
        <ele>131</ele>
        <time>2023-09-03T08:55:06Z</time>
      </trkpt>
      <trkpt lat="44.93452" lon="4.89445">
        <ele>130.9</ele>
        <time>2023-09-03T08:55:08Z</time>
      </trkpt>
      <trkpt lat="44.93465" lon="4.89457">
        <ele>130.8</ele>
        <time>2023-09-03T08:55:12Z</time>
      </trkpt>
      <trkpt lat="44.93469" lon="4.89465">
        <ele>130.7</ele>
        <time>2023-09-03T08:55:14Z</time>
      </trkpt>
      <trkpt lat="44.93467" lon="4.89481">
        <ele>130.7</ele>
        <time>2023-09-03T08:55:17Z</time>
      </trkpt>
      <trkpt lat="44.93455" lon="4.89483">
        <ele>130.6</ele>
        <time>2023-09-03T08:55:20Z</time>
      </trkpt>
      <trkpt lat="44.93435" lon="4.89479">
        <ele>130.5</ele>
        <time>2023-09-03T08:55:26Z</time>
      </trkpt>
      <trkpt lat="44.93433" lon="4.89481">
        <ele>130.6</ele>
        <time>2023-09-03T08:55:27Z</time>
      </trkpt>
      <trkpt lat="44.93431" lon="4.89486">
        <ele>130.7</ele>
        <time>2023-09-03T08:55:30Z</time>
      </trkpt>
      <trkpt lat="44.93425" lon="4.89497">
        <ele>130.9</ele>
        <time>2023-09-03T08:55:33Z</time>
      </trkpt>
      <trkpt lat="44.93405" lon="4.89499">
        <ele>131.2</ele>
        <time>2023-09-03T08:55:39Z</time>
      </trkpt>
      <trkpt lat="44.93386" lon="4.89489">
        <ele>131.4</ele>
        <time>2023-09-03T08:55:45Z</time>
      </trkpt>
      <trkpt lat="44.9339" lon="4.89464">
        <ele>131.2</ele>
        <time>2023-09-03T08:55:52Z</time>
      </trkpt>
      <trkpt lat="44.93395" lon="4.89435">
        <ele>131.1</ele>
        <time>2023-09-03T08:56:00Z</time>
      </trkpt>
      <trkpt lat="44.93407" lon="4.89445">
        <ele>131</ele>
        <time>2023-09-03T08:56:07Z</time>
      </trkpt>
      <trkpt lat="44.93397" lon="4.8944">
        <ele>131.2</ele>
        <time>2023-09-03T08:56:11Z</time>
      </trkpt>
      <trkpt lat="44.9339" lon="4.89422">
        <ele>131.5</ele>
        <time>2023-09-03T08:56:15Z</time>
      </trkpt>
      <trkpt lat="44.93396" lon="4.89395">
        <ele>131.3</ele>
        <time>2023-09-03T08:56:21Z</time>
      </trkpt>
      <trkpt lat="44.93399" lon="4.89369">
        <ele>131.4</ele>
        <time>2023-09-03T08:56:26Z</time>
      </trkpt>
      <trkpt lat="44.93408" lon="4.89355">
        <ele>131.4</ele>
        <time>2023-09-03T08:56:29Z</time>
      </trkpt>
      <trkpt lat="44.93418" lon="4.89352">
        <ele>131.4</ele>
        <time>2023-09-03T08:56:31Z</time>
      </trkpt>
      <trkpt lat="44.93439" lon="4.89355">
        <ele>131.7</ele>
        <time>2023-09-03T08:56:36Z</time>
      </trkpt>
      <trkpt lat="44.93443" lon="4.89349">
        <ele>131.6</ele>
        <time>2023-09-03T08:56:37Z</time>
      </trkpt>
      <trkpt lat="44.93452" lon="4.89327">
        <ele>131.7</ele>
        <time>2023-09-03T08:56:41Z</time>
      </trkpt>
      <trkpt lat="44.9346" lon="4.893">
        <ele>131.7</ele>
        <time>2023-09-03T08:56:46Z</time>
      </trkpt>
      <trkpt lat="44.93471" lon="4.89289">
        <ele>131.5</ele>
        <time>2023-09-03T08:56:50Z</time>
      </trkpt>
      <trkpt lat="44.93493" lon="4.89291">
        <ele>131.2</ele>
        <time>2023-09-03T08:56:54Z</time>
      </trkpt>
      <trkpt lat="44.93511" lon="4.89302">
        <ele>130.9</ele>
        <time>2023-09-03T08:56:58Z</time>
      </trkpt>
      <trkpt lat="44.93522" lon="4.89311">
        <ele>130.5</ele>
        <time>2023-09-03T08:57:01Z</time>
      </trkpt>
      <trkpt lat="44.93525" lon="4.89309">
        <ele>130.4</ele>
        <time>2023-09-03T08:57:03Z</time>
      </trkpt>
      <trkpt lat="44.93528" lon="4.89287">
        <ele>130.4</ele>
        <time>2023-09-03T08:57:07Z</time>
      </trkpt>
      <trkpt lat="44.93518" lon="4.8926">
        <ele>130.7</ele>
        <time>2023-09-03T08:57:12Z</time>
      </trkpt>
      <trkpt lat="44.93507" lon="4.89235">
        <ele>130.9</ele>
        <time>2023-09-03T08:57:17Z</time>
      </trkpt>
      <trkpt lat="44.93496" lon="4.89227">
        <ele>131.5</ele>
        <time>2023-09-03T08:57:21Z</time>
      </trkpt>
      <trkpt lat="44.93476" lon="4.8922">
        <ele>131.9</ele>
        <time>2023-09-03T08:57:28Z</time>
      </trkpt>
      <trkpt lat="44.93464" lon="4.89201">
        <ele>132.5</ele>
        <time>2023-09-03T08:57:32Z</time>
      </trkpt>
      <trkpt lat="44.93455" lon="4.89175">
        <ele>132.6</ele>
        <time>2023-09-03T08:57:37Z</time>
      </trkpt>
      <trkpt lat="44.93439" lon="4.89153">
        <ele>132.7</ele>
        <time>2023-09-03T08:57:45Z</time>
      </trkpt>
      <trkpt lat="44.93426" lon="4.8913">
        <ele>132.4</ele>
        <time>2023-09-03T08:57:52Z</time>
      </trkpt>
      <trkpt lat="44.9342" lon="4.89123">
        <ele>132.3</ele>
        <time>2023-09-03T08:57:54Z</time>
      </trkpt>
      <trkpt lat="44.93414" lon="4.89121">
        <ele>132.2</ele>
        <time>2023-09-03T08:57:56Z</time>
      </trkpt>
      <trkpt lat="44.93408" lon="4.89123">
        <ele>132.2</ele>
        <time>2023-09-03T08:57:58Z</time>
      </trkpt>
      <trkpt lat="44.93403" lon="4.8913">
        <ele>132.2</ele>
        <time>2023-09-03T08:58:00Z</time>
      </trkpt>
      <trkpt lat="44.93389" lon="4.89148">
        <ele>132.3</ele>
        <time>2023-09-03T08:58:04Z</time>
      </trkpt>
      <trkpt lat="44.93385" lon="4.89181">
        <ele>132.3</ele>
        <time>2023-09-03T08:58:08Z</time>
      </trkpt>
      <trkpt lat="44.9337" lon="4.89201">
        <ele>132.3</ele>
        <time>2023-09-03T08:58:12Z</time>
      </trkpt>
      <trkpt lat="44.93358" lon="4.89217">
        <ele>132.3</ele>
        <time>2023-09-03T08:58:16Z</time>
      </trkpt>
      <trkpt lat="44.93355" lon="4.89225">
        <ele>132.9</ele>
        <time>2023-09-03T08:58:18Z</time>
      </trkpt>
      <trkpt lat="44.93353" lon="4.89237">
        <ele>132.9</ele>
        <time>2023-09-03T08:58:20Z</time>
      </trkpt>
      <trkpt lat="44.93356" lon="4.89251">
        <ele>133</ele>
        <time>2023-09-03T08:58:22Z</time>
      </trkpt>
      <trkpt lat="44.93363" lon="4.89275">
        <ele>133.1</ele>
        <time>2023-09-03T08:58:26Z</time>
      </trkpt>
      <trkpt lat="44.93371" lon="4.89304">
        <ele>133.2</ele>
        <time>2023-09-03T08:58:31Z</time>
      </trkpt>
      <trkpt lat="44.93373" lon="4.89308">
        <ele>133.2</ele>
        <time>2023-09-03T08:58:33Z</time>
      </trkpt>
      <trkpt lat="44.93369" lon="4.89307">
        <ele>133.2</ele>
        <time>2023-09-03T08:58:35Z</time>
      </trkpt>
      <trkpt lat="44.93349" lon="4.89308">
        <ele>133</ele>
        <time>2023-09-03T08:58:41Z</time>
      </trkpt>
      <trkpt lat="44.93346" lon="4.8931">
        <ele>133</ele>
        <time>2023-09-03T08:58:43Z</time>
      </trkpt>
      <trkpt lat="44.93348" lon="4.8931">
        <ele>132.9</ele>
        <time>2023-09-03T08:58:46Z</time>
      </trkpt>
      <trkpt lat="44.93332" lon="4.89294">
        <ele>132.6</ele>
        <time>2023-09-03T08:58:53Z</time>
      </trkpt>
      <trkpt lat="44.93325" lon="4.89271">
        <ele>131.9</ele>
        <time>2023-09-03T08:58:59Z</time>
      </trkpt>
      <trkpt lat="44.93332" lon="4.89259">
        <ele>132</ele>
        <time>2023-09-03T08:59:01Z</time>
      </trkpt>
      <trkpt lat="44.93344" lon="4.89239">
        <ele>132.1</ele>
        <time>2023-09-03T08:59:05Z</time>
      </trkpt>
      <trkpt lat="44.93354" lon="4.89216">
        <ele>132.4</ele>
        <time>2023-09-03T08:59:09Z</time>
      </trkpt>
      <trkpt lat="44.93355" lon="4.89189">
        <ele>132.3</ele>
        <time>2023-09-03T08:59:13Z</time>
      </trkpt>
      <trkpt lat="44.93356" lon="4.89163">
        <ele>132.3</ele>
        <time>2023-09-03T08:59:18Z</time>
      </trkpt>
      <trkpt lat="44.93368" lon="4.89146">
        <ele>132.3</ele>
        <time>2023-09-03T08:59:23Z</time>
      </trkpt>
      <trkpt lat="44.93387" lon="4.89151">
        <ele>132.3</ele>
        <time>2023-09-03T08:59:28Z</time>
      </trkpt>
      <trkpt lat="44.93405" lon="4.89133">
        <ele>132.2</ele>
        <time>2023-09-03T08:59:33Z</time>
      </trkpt>
      <trkpt lat="44.93421" lon="4.89115">
        <ele>132</ele>
        <time>2023-09-03T08:59:37Z</time>
      </trkpt>
      <trkpt lat="44.93417" lon="4.89092">
        <ele>132.1</ele>
        <time>2023-09-03T08:59:43Z</time>
      </trkpt>
      <trkpt lat="44.93408" lon="4.89092">
        <ele>132.2</ele>
        <time>2023-09-03T08:59:45Z</time>
      </trkpt>
      <trkpt lat="44.93388" lon="4.89092">
        <ele>132.3</ele>
        <time>2023-09-03T08:59:50Z</time>
      </trkpt>
      <trkpt lat="44.93369" lon="4.89092">
        <ele>132.4</ele>
        <time>2023-09-03T08:59:54Z</time>
      </trkpt>
      <trkpt lat="44.9336" lon="4.89069">
        <ele>132.3</ele>
        <time>2023-09-03T08:59:59Z</time>
      </trkpt>
      <trkpt lat="44.93359" lon="4.89041">
        <ele>132.2</ele>
        <time>2023-09-03T09:00:04Z</time>
      </trkpt>
      <trkpt lat="44.93349" lon="4.89015">
        <ele>132.2</ele>
        <time>2023-09-03T09:00:10Z</time>
      </trkpt>
      <trkpt lat="44.93329" lon="4.89003">
        <ele>131.6</ele>
        <time>2023-09-03T09:00:16Z</time>
      </trkpt>
      <trkpt lat="44.93314" lon="4.89004">
        <ele>131.1</ele>
        <time>2023-09-03T09:00:18Z</time>
      </trkpt>
      <trkpt lat="44.93302" lon="4.89005">
        <ele>130.8</ele>
        <time>2023-09-03T09:00:21Z</time>
      </trkpt>
      <trkpt lat="44.93293" lon="4.89032">
        <ele>133.4</ele>
        <time>2023-09-03T09:00:27Z</time>
      </trkpt>
      <trkpt lat="44.93284" lon="4.89061">
        <ele>136.1</ele>
        <time>2023-09-03T09:00:32Z</time>
      </trkpt>
      <trkpt lat="44.93277" lon="4.89088">
        <ele>137.1</ele>
        <time>2023-09-03T09:00:37Z</time>
      </trkpt>
      <trkpt lat="44.9326" lon="4.891">
        <ele>136.7</ele>
        <time>2023-09-03T09:00:41Z</time>
      </trkpt>
      <trkpt lat="44.93252" lon="4.89107">
        <ele>136.2</ele>
        <time>2023-09-03T09:00:44Z</time>
      </trkpt>
      <trkpt lat="44.9324" lon="4.8913">
        <ele>135.4</ele>
        <time>2023-09-03T09:00:49Z</time>
      </trkpt>
      <trkpt lat="44.93223" lon="4.89144">
        <ele>134.3</ele>
        <time>2023-09-03T09:00:54Z</time>
      </trkpt>
      <trkpt lat="44.93204" lon="4.89137">
        <ele>133.3</ele>
        <time>2023-09-03T09:01:00Z</time>
      </trkpt>
      <trkpt lat="44.93204" lon="4.89109">
        <ele>132.9</ele>
        <time>2023-09-03T09:01:06Z</time>
      </trkpt>
      <trkpt lat="44.93211" lon="4.89081">
        <ele>132.4</ele>
        <time>2023-09-03T09:01:13Z</time>
      </trkpt>
      <trkpt lat="44.93208" lon="4.89074">
        <ele>131.7</ele>
        <time>2023-09-03T09:01:15Z</time>
      </trkpt>
      <trkpt lat="44.93187" lon="4.89073">
        <ele>130.6</ele>
        <time>2023-09-03T09:01:20Z</time>
      </trkpt>
      <trkpt lat="44.93169" lon="4.8908">
        <ele>129.9</ele>
        <time>2023-09-03T09:01:24Z</time>
      </trkpt>
      <trkpt lat="44.93154" lon="4.89098">
        <ele>129.2</ele>
        <time>2023-09-03T09:01:30Z</time>
      </trkpt>
      <trkpt lat="44.93161" lon="4.89123">
        <ele>129.2</ele>
        <time>2023-09-03T09:01:34Z</time>
      </trkpt>
      <trkpt lat="44.93168" lon="4.89149">
        <ele>129.4</ele>
        <time>2023-09-03T09:01:38Z</time>
      </trkpt>
      <trkpt lat="44.93167" lon="4.89175">
        <ele>129.6</ele>
        <time>2023-09-03T09:01:42Z</time>
      </trkpt>
      <trkpt lat="44.93155" lon="4.89179">
        <ele>129.4</ele>
        <time>2023-09-03T09:01:45Z</time>
      </trkpt>
      <trkpt lat="44.93139" lon="4.89176">
        <ele>129.1</ele>
        <time>2023-09-03T09:01:50Z</time>
      </trkpt>
      <trkpt lat="44.93136" lon="4.89177">
        <ele>128.3</ele>
        <time>2023-09-03T09:01:52Z</time>
      </trkpt>
      <trkpt lat="44.93133" lon="4.89178">
        <ele>128.1</ele>
        <time>2023-09-03T09:01:54Z</time>
      </trkpt>
      <trkpt lat="44.93115" lon="4.89182">
        <ele>127.3</ele>
        <time>2023-09-03T09:01:56Z</time>
      </trkpt>
      <trkpt lat="44.93107" lon="4.89187">
        <ele>127.3</ele>
        <time>2023-09-03T09:01:58Z</time>
      </trkpt>
      <trkpt lat="44.93101" lon="4.89193">
        <ele>127.5</ele>
        <time>2023-09-03T09:02:00Z</time>
      </trkpt>
      <trkpt lat="44.93094" lon="4.89197">
        <ele>127.6</ele>
        <time>2023-09-03T09:02:02Z</time>
      </trkpt>
      <trkpt lat="44.9309" lon="4.89212">
        <ele>127.8</ele>
        <time>2023-09-03T09:02:06Z</time>
      </trkpt>
      <trkpt lat="44.93094" lon="4.8922">
        <ele>127.9</ele>
        <time>2023-09-03T09:02:08Z</time>
      </trkpt>
      <trkpt lat="44.93098" lon="4.89229">
        <ele>128.4</ele>
        <time>2023-09-03T09:02:10Z</time>
      </trkpt>
      <trkpt lat="44.93113" lon="4.89242">
        <ele>128.7</ele>
        <time>2023-09-03T09:02:15Z</time>
      </trkpt>
      <trkpt lat="44.93128" lon="4.89257">
        <ele>129.1</ele>
        <time>2023-09-03T09:02:19Z</time>
      </trkpt>
      <trkpt lat="44.93147" lon="4.89272">
        <ele>129.6</ele>
        <time>2023-09-03T09:02:23Z</time>
      </trkpt>
      <trkpt lat="44.93163" lon="4.89286">
        <ele>129.9</ele>
        <time>2023-09-03T09:02:27Z</time>
      </trkpt>
      <trkpt lat="44.9318" lon="4.89303">
        <ele>130.4</ele>
        <time>2023-09-03T09:02:32Z</time>
      </trkpt>
      <trkpt lat="44.93182" lon="4.89313">
        <ele>130.5</ele>
        <time>2023-09-03T09:02:34Z</time>
      </trkpt>
      <trkpt lat="44.93177" lon="4.89324">
        <ele>130.6</ele>
        <time>2023-09-03T09:02:36Z</time>
      </trkpt>
      <trkpt lat="44.93166" lon="4.89351">
        <ele>131.1</ele>
        <time>2023-09-03T09:02:40Z</time>
      </trkpt>
      <trkpt lat="44.93163" lon="4.89357">
        <ele>131.2</ele>
        <time>2023-09-03T09:02:41Z</time>
      </trkpt>
      <trkpt lat="44.93151" lon="4.8937">
        <ele>131.7</ele>
        <time>2023-09-03T09:02:45Z</time>
      </trkpt>
      <trkpt lat="44.93146" lon="4.89372">
        <ele>131.7</ele>
        <time>2023-09-03T09:02:47Z</time>
      </trkpt>
      <trkpt lat="44.93142" lon="4.89369">
        <ele>131.6</ele>
        <time>2023-09-03T09:02:49Z</time>
      </trkpt>
      <trkpt lat="44.93135" lon="4.89367">
        <ele>131.4</ele>
        <time>2023-09-03T09:02:52Z</time>
      </trkpt>
      <trkpt lat="44.93123" lon="4.89387">
        <ele>130.7</ele>
        <time>2023-09-03T09:02:55Z</time>
      </trkpt>
      <trkpt lat="44.9312" lon="4.89394">
        <ele>130.7</ele>
        <time>2023-09-03T09:02:56Z</time>
      </trkpt>
      <trkpt lat="44.9311" lon="4.89403">
        <ele>130.8</ele>
        <time>2023-09-03T09:02:58Z</time>
      </trkpt>
      <trkpt lat="44.9309" lon="4.89411">
        <ele>130.4</ele>
        <time>2023-09-03T09:03:01Z</time>
      </trkpt>
      <trkpt lat="44.93079" lon="4.89413">
        <ele>130.3</ele>
        <time>2023-09-03T09:03:03Z</time>
      </trkpt>
      <trkpt lat="44.93073" lon="4.8941">
        <ele>130.2</ele>
        <time>2023-09-03T09:03:05Z</time>
      </trkpt>
      <trkpt lat="44.93061" lon="4.89386">
        <ele>129.9</ele>
        <time>2023-09-03T09:03:09Z</time>
      </trkpt>
      <trkpt lat="44.93053" lon="4.89366">
        <ele>129.7</ele>
        <time>2023-09-03T09:03:12Z</time>
      </trkpt>
      <trkpt lat="44.93052" lon="4.89353">
        <ele>129.6</ele>
        <time>2023-09-03T09:03:15Z</time>
      </trkpt>
      <trkpt lat="44.93059" lon="4.89332">
        <ele>129.3</ele>
        <time>2023-09-03T09:04:10Z</time>
      </trkpt>
      <trkpt lat="44.93056" lon="4.89317">
        <ele>129.1</ele>
        <time>2023-09-03T09:04:16Z</time>
      </trkpt>
      <trkpt lat="44.93054" lon="4.89289">
        <ele>128.7</ele>
        <time>2023-09-03T09:04:25Z</time>
      </trkpt>
      <trkpt lat="44.93054" lon="4.89262">
        <ele>128.4</ele>
        <time>2023-09-03T09:04:32Z</time>
      </trkpt>
      <trkpt lat="44.93056" lon="4.89235">
        <ele>128.1</ele>
        <time>2023-09-03T09:04:41Z</time>
      </trkpt>
      <trkpt lat="44.93053" lon="4.89208">
        <ele>127.8</ele>
        <time>2023-09-03T09:04:50Z</time>
      </trkpt>
      <trkpt lat="44.93056" lon="4.89182">
        <ele>127.6</ele>
        <time>2023-09-03T09:05:00Z</time>
      </trkpt>
      <trkpt lat="44.93055" lon="4.89153">
        <ele>127.5</ele>
        <time>2023-09-03T09:05:09Z</time>
      </trkpt>
      <trkpt lat="44.93045" lon="4.89131">
        <ele>126.8</ele>
        <time>2023-09-03T09:05:16Z</time>
      </trkpt>
      <trkpt lat="44.93034" lon="4.8911">
        <ele>126.7</ele>
        <time>2023-09-03T09:05:24Z</time>
      </trkpt>
      <trkpt lat="44.93037" lon="4.89084">
        <ele>126.6</ele>
        <time>2023-09-03T09:05:33Z</time>
      </trkpt>
      <trkpt lat="44.93038" lon="4.89059">
        <ele>126.5</ele>
        <time>2023-09-03T09:05:42Z</time>
      </trkpt>
      <trkpt lat="44.9304" lon="4.89032">
        <ele>126.3</ele>
        <time>2023-09-03T09:05:51Z</time>
      </trkpt>
      <trkpt lat="44.9304" lon="4.89029">
        <ele>126.3</ele>
        <time>2023-09-03T09:05:53Z</time>
      </trkpt>
      <trkpt lat="44.93038" lon="4.89024">
        <ele>126.2</ele>
        <time>2023-09-03T09:05:55Z</time>
      </trkpt>
      <trkpt lat="44.93034" lon="4.89018">
        <ele>126.1</ele>
        <time>2023-09-03T09:06:00Z</time>
      </trkpt>
      <trkpt lat="44.9304" lon="4.89008">
        <ele>126</ele>
        <time>2023-09-03T09:06:19Z</time>
      </trkpt>
      <trkpt lat="44.93045" lon="4.88983">
        <ele>125.1</ele>
        <time>2023-09-03T09:06:27Z</time>
      </trkpt>
      <trkpt lat="44.93048" lon="4.88956">
        <ele>124.1</ele>
        <time>2023-09-03T09:06:35Z</time>
      </trkpt>
      <trkpt lat="44.93047" lon="4.8893">
        <ele>123.1</ele>
        <time>2023-09-03T09:06:43Z</time>
      </trkpt>
      <trkpt lat="44.93048" lon="4.88903">
        <ele>122.1</ele>
        <time>2023-09-03T09:06:51Z</time>
      </trkpt>
      <trkpt lat="44.93048" lon="4.88876">
        <ele>121.4</ele>
        <time>2023-09-03T09:06:58Z</time>
      </trkpt>
      <trkpt lat="44.93051" lon="4.88849">
        <ele>120.7</ele>
        <time>2023-09-03T09:07:05Z</time>
      </trkpt>
      <trkpt lat="44.93051" lon="4.88842">
        <ele>120.6</ele>
        <time>2023-09-03T09:07:08Z</time>
      </trkpt>
      <trkpt lat="44.93051" lon="4.88841">
        <ele>120.6</ele>
        <time>2023-09-03T09:07:19Z</time>
      </trkpt>
      <trkpt lat="44.93044" lon="4.88818">
        <ele>120</ele>
        <time>2023-09-03T09:07:29Z</time>
      </trkpt>
      <trkpt lat="44.93031" lon="4.888">
        <ele>118.7</ele>
        <time>2023-09-03T09:07:36Z</time>
      </trkpt>
      <trkpt lat="44.93017" lon="4.88781">
        <ele>117.2</ele>
        <time>2023-09-03T09:07:43Z</time>
      </trkpt>
      <trkpt lat="44.93002" lon="4.88765">
        <ele>116.6</ele>
        <time>2023-09-03T09:07:53Z</time>
      </trkpt>
      <trkpt lat="44.92984" lon="4.88757">
        <ele>116.5</ele>
        <time>2023-09-03T09:08:02Z</time>
      </trkpt>
      <trkpt lat="44.92965" lon="4.88749">
        <ele>116.8</ele>
        <time>2023-09-03T09:08:11Z</time>
      </trkpt>
      <trkpt lat="44.92948" lon="4.88739">
        <ele>116.6</ele>
        <time>2023-09-03T09:08:19Z</time>
      </trkpt>
      <trkpt lat="44.92931" lon="4.8873">
        <ele>116.5</ele>
        <time>2023-09-03T09:08:26Z</time>
      </trkpt>
      <trkpt lat="44.92913" lon="4.8872">
        <ele>116.3</ele>
        <time>2023-09-03T09:08:34Z</time>
      </trkpt>
      <trkpt lat="44.92897" lon="4.88707">
        <ele>115.7</ele>
        <time>2023-09-03T09:08:41Z</time>
      </trkpt>
      <trkpt lat="44.92882" lon="4.8869">
        <ele>114</ele>
        <time>2023-09-03T09:08:48Z</time>
      </trkpt>
      <trkpt lat="44.92876" lon="4.88665">
        <ele>112</ele>
        <time>2023-09-03T09:08:55Z</time>
      </trkpt>
      <trkpt lat="44.92864" lon="4.88643">
        <ele>111.8</ele>
        <time>2023-09-03T09:09:04Z</time>
      </trkpt>
      <trkpt lat="44.92857" lon="4.88632">
        <ele>111.7</ele>
        <time>2023-09-03T09:09:09Z</time>
      </trkpt>
      <trkpt lat="44.92848" lon="4.88598">
        <ele>114.1</ele>
        <time>2023-09-03T09:15:25Z</time>
      </trkpt>
      <trkpt lat="44.92852" lon="4.88601">
        <ele>112</ele>
        <time>2023-09-03T09:15:28Z</time>
      </trkpt>
      <trkpt lat="44.92858" lon="4.88605">
        <ele>111.4</ele>
        <time>2023-09-03T09:15:32Z</time>
      </trkpt>
      <trkpt lat="44.92867" lon="4.88601">
        <ele>111.4</ele>
        <time>2023-09-03T09:15:37Z</time>
      </trkpt>
      <trkpt lat="44.92881" lon="4.8862">
        <ele>111.5</ele>
        <time>2023-09-03T09:15:46Z</time>
      </trkpt>
      <trkpt lat="44.92892" lon="4.88641">
        <ele>111.6</ele>
        <time>2023-09-03T09:15:56Z</time>
      </trkpt>
      <trkpt lat="44.92896" lon="4.88653">
        <ele>111.5</ele>
        <time>2023-09-03T09:16:01Z</time>
      </trkpt>
      <trkpt lat="44.92894" lon="4.88656">
        <ele>111.5</ele>
        <time>2023-09-03T09:16:03Z</time>
      </trkpt>
      <trkpt lat="44.92883" lon="4.8867">
        <ele>112.3</ele>
        <time>2023-09-03T09:16:13Z</time>
      </trkpt>
      <trkpt lat="44.92864" lon="4.88677">
        <ele>113.5</ele>
        <time>2023-09-03T09:16:23Z</time>
      </trkpt>
      <trkpt lat="44.92845" lon="4.88679">
        <ele>113.6</ele>
        <time>2023-09-03T09:16:33Z</time>
      </trkpt>
      <trkpt lat="44.92827" lon="4.88668">
        <ele>112.8</ele>
        <time>2023-09-03T09:16:42Z</time>
      </trkpt>
      <trkpt lat="44.92815" lon="4.8865">
        <ele>112.3</ele>
        <time>2023-09-03T09:16:50Z</time>
      </trkpt>
      <trkpt lat="44.92812" lon="4.88624">
        <ele>111.9</ele>
        <time>2023-09-03T09:16:58Z</time>
      </trkpt>
      <trkpt lat="44.92819" lon="4.88599">
        <ele>111.8</ele>
        <time>2023-09-03T09:17:06Z</time>
      </trkpt>
      <trkpt lat="44.92833" lon="4.8858">
        <ele>111.7</ele>
        <time>2023-09-03T09:17:14Z</time>
      </trkpt>
      <trkpt lat="44.92851" lon="4.8857">
        <ele>111.5</ele>
        <time>2023-09-03T09:17:22Z</time>
      </trkpt>
      <trkpt lat="44.92863" lon="4.88553">
        <ele>111.5</ele>
        <time>2023-09-03T09:17:37Z</time>
      </trkpt>
      <trkpt lat="44.92882" lon="4.88549">
        <ele>111.5</ele>
        <time>2023-09-03T09:17:47Z</time>
      </trkpt>
      <trkpt lat="44.92894" lon="4.88548">
        <ele>111.4</ele>
        <time>2023-09-03T09:17:57Z</time>
      </trkpt>
      <trkpt lat="44.92875" lon="4.88552">
        <ele>111.5</ele>
        <time>2023-09-03T09:18:04Z</time>
      </trkpt>
      <trkpt lat="44.92856" lon="4.88555">
        <ele>111.5</ele>
        <time>2023-09-03T09:18:12Z</time>
      </trkpt>
      <trkpt lat="44.92853" lon="4.88555">
        <ele>111.5</ele>
        <time>2023-09-03T09:18:14Z</time>
      </trkpt>
      <trkpt lat="44.92853" lon="4.88551">
        <ele>111.5</ele>
        <time>2023-09-03T09:18:18Z</time>
      </trkpt>
      <trkpt lat="44.92853" lon="4.8856">
        <ele>111.5</ele>
        <time>2023-09-03T09:18:31Z</time>
      </trkpt>
      <trkpt lat="44.92852" lon="4.88562">
        <ele>111.5</ele>
        <time>2023-09-03T09:18:32Z</time>
      </trkpt>
      <trkpt lat="44.92851" lon="4.88566">
        <ele>111.5</ele>
        <time>2023-09-03T09:18:34Z</time>
      </trkpt>
      <trkpt lat="44.92857" lon="4.88592">
        <ele>111.4</ele>
        <time>2023-09-03T09:18:46Z</time>
      </trkpt>
      <trkpt lat="44.92868" lon="4.88612">
        <ele>111.4</ele>
        <time>2023-09-03T09:18:54Z</time>
      </trkpt>
      <trkpt lat="44.92881" lon="4.88634">
        <ele>111.5</ele>
        <time>2023-09-03T09:19:04Z</time>
      </trkpt>
      <trkpt lat="44.92891" lon="4.88654">
        <ele>111.5</ele>
        <time>2023-09-03T09:19:13Z</time>
      </trkpt>
      <trkpt lat="44.92889" lon="4.88657">
        <ele>111.5</ele>
        <time>2023-09-03T09:19:15Z</time>
      </trkpt>
      <trkpt lat="44.92872" lon="4.88648">
        <ele>111.5</ele>
        <time>2023-09-03T09:19:24Z</time>
      </trkpt>
      <trkpt lat="44.92859" lon="4.88629">
        <ele>111.4</ele>
        <time>2023-09-03T09:19:34Z</time>
      </trkpt>
      <trkpt lat="44.92852" lon="4.88623">
        <ele>111.4</ele>
        <time>2023-09-03T09:19:39Z</time>
      </trkpt>
    </trkseg>
  </trk>
</gpx>